Time;durP1;ratioP1;P1;durP2;ratioP2;P2;SDS_P1;SDS_P2;PMS_P1;PMS_P2;Temp;Humidity;BMP_temperature;BMP_pressure;BME280_temperature;BME280_humidity;BME280_pressure;Samples;Min_cycle;Max_cycle;Signal;HPM_P1;HPM_P2
2021/10/17 00:01:18;;;;;;;220.77;40.72;;;8.00;99.90;;;;;;5039704;28;20866;-52
2021/10/17 00:03:44;;;;;;;198.87;39.00;;;8.00;99.90;;;;;;5048016;28;20437;-53
2021/10/17 00:06:09;;;;;;;178.98;34.40;;;8.10;99.90;;;;;;5051386;28;20411;-53
2021/10/17 00:08:35;;;;;;;248.00;41.83;;;8.10;99.90;;;;;;5050389;28;20424;-53
2021/10/17 00:11:01;;;;;;;265.00;41.78;;;8.10;99.90;;;;;;5051709;28;20396;-53
2021/10/17 00:13:26;;;;;;;251.10;41.40;;;8.20;99.90;;;;;;5052083;28;20780;-52
2021/10/17 00:15:52;;;;;;;324.38;41.97;;;8.20;99.90;;;;;;5052297;28;20426;-52
2021/10/17 00:18:18;;;;;;;238.93;37.97;;;8.10;99.90;;;;;;5051380;28;20413;-52
2021/10/17 00:20:44;;;;;;;222.43;38.65;;;8.10;99.90;;;;;;5050830;28;20401;-54
2021/10/17 00:23:09;;;;;;;207.57;35.83;;;8.20;99.90;;;;;;5036641;28;20931;-52
2021/10/17 00:25:35;;;;;;;188.27;37.08;;;8.20;99.90;;;;;;5038360;28;20459;-52
2021/10/17 00:28:01;;;;;;;240.10;37.90;;;8.10;99.90;;;;;;5051000;28;20433;-53
2021/10/17 00:30:27;;;;;;;173.53;34.27;;;8.10;99.90;;;;;;5051984;28;20853;-51
2021/10/17 00:32:53;;;;;;;182.63;33.83;;;8.10;99.90;;;;;;5052368;28;20417;-52
2021/10/17 00:35:18;;;;;;;159.32;32.97;;;7.90;99.90;;;;;;5051018;28;20993;-52
2021/10/17 00:37:44;;;;;;;236.13;38.03;;;7.80;99.90;;;;;;5051503;28;20539;-53
2021/10/17 00:40:15;;;;;;;199.73;32.92;;;7.90;99.90;;;;;;5050738;28;20862;-52
2021/10/17 00:42:41;;;;;;;163.73;33.03;;;7.90;99.90;;;;;;5051304;28;20393;-54
2021/10/17 00:45:10;;;;;;;170.43;31.83;;;7.90;99.90;;;;;;5049509;28;20471;-53
2021/10/17 00:47:36;;;;;;;196.75;32.72;;;7.90;99.90;;;;;;5051732;28;20400;-52
2021/10/17 00:50:03;;;;;;;131.88;32.22;;;7.90;99.90;;;;;;5050869;28;20576;-52
2021/10/17 00:52:29;;;;;;;145.90;32.42;;;7.90;99.90;;;;;;5051517;28;20396;-52
2021/10/17 00:54:54;;;;;;;107.88;29.48;;;7.70;99.90;;;;;;5050802;28;20386;-55
2021/10/17 00:57:20;;;;;;;110.50;30.00;;;7.60;99.90;;;;;;5050695;28;20394;-53
2021/10/17 00:59:46;;;;;;;98.60;28.63;;;7.60;99.90;;;;;;5051195;28;20772;-52
2021/10/17 01:02:12;;;;;;;116.05;30.38;;;7.50;99.90;;;;;;5051085;28;20386;-52
2021/10/17 01:04:39;;;;;;;115.00;29.48;;;7.40;99.90;;;;;;5050438;28;20401;-52
2021/10/17 01:07:06;;;;;;;136.87;32.17;;;7.40;99.90;;;;;;5044837;28;20495;-52
2021/10/17 01:09:33;;;;;;;150.88;32.28;;;7.40;99.90;;;;;;5040724;28;20437;-52
2021/10/17 01:11:58;;;;;;;100.07;30.38;;;7.30;99.90;;;;;;5038244;28;20428;-57
2021/10/17 01:14:25;;;;;;;97.23;28.30;;;7.20;99.90;;;;;;5030212;28;20387;-51
2021/10/17 01:16:52;;;;;;;81.18;28.70;;;7.10;99.90;;;;;;5044979;28;20378;-52
2021/10/17 01:19:19;;;;;;;73.63;27.13;;;7.10;99.90;;;;;;5050357;28;20446;-52
2021/10/17 01:21:45;;;;;;;98.32;27.40;;;6.80;99.90;;;;;;5051140;28;20381;-51
2021/10/17 01:24:11;;;;;;;87.72;28.08;;;6.80;99.90;;;;;;5050365;28;20409;-52
2021/10/17 01:26:38;;;;;;;147.53;30.27;;;6.90;99.90;;;;;;5050870;28;20392;-52
2021/10/17 01:29:04;;;;;;;168.60;32.08;;;6.90;99.90;;;;;;5050171;28;20413;-52
2021/10/17 01:31:34;;;;;;;76.22;24.95;;;6.80;99.90;;;;;;5051138;28;20413;-52
2021/10/17 01:33:59;;;;;;;93.75;29.25;;;6.90;99.90;;;;;;5050355;28;20438;-56
2021/10/17 01:36:26;;;;;;;63.70;26.20;;;6.80;99.90;;;;;;5050735;28;20389;-52
2021/10/17 01:38:52;;;;;;;57.40;25.20;;;6.80;99.90;;;;;;5050648;28;20382;-52
2021/10/17 01:41:18;;;;;;;68.00;26.27;;;6.70;99.90;;;;;;5049549;28;21013;-52
2021/10/17 01:43:43;;;;;;;89.97;27.37;;;6.70;99.90;;;;;;5050752;28;20431;-52
2021/10/17 01:46:09;;;;;;;126.32;30.73;;;6.60;99.90;;;;;;5050019;28;20393;-51
2021/10/17 01:48:35;;;;;;;118.03;29.80;;;6.50;99.90;;;;;;5050881;28;20865;-53
2021/10/17 01:51:00;;;;;;;148.93;30.55;;;6.60;99.90;;;;;;5049455;28;20599;-52
2021/10/17 01:53:28;;;;;;;98.17;27.70;;;6.50;99.90;;;;;;5050464;28;20868;-52
2021/10/17 01:55:59;;;;;;;83.68;27.40;;;6.50;99.90;;;;;;5050258;28;20527;-52
2021/10/17 01:58:24;;;;;;;110.60;30.60;;;6.50;99.90;;;;;;5050378;28;20380;-52
2021/10/17 02:00:51;;;;;;;108.00;30.50;;;6.40;99.90;;;;;;5050429;28;20484;-51
2021/10/17 02:03:17;;;;;;;82.47;26.52;;;6.40;99.90;;;;;;5049347;28;20369;-52
2021/10/17 02:05:43;;;;;;;81.07;27.37;;;6.40;99.90;;;;;;5049735;28;20742;-52
2021/10/17 02:08:08;;;;;;;62.22;25.65;;;6.30;99.90;;;;;;5048708;28;20410;-52
2021/10/17 02:10:34;;;;;;;104.33;28.97;;;6.30;99.90;;;;;;5049993;28;20473;-52
2021/10/17 02:13:00;;;;;;;66.25;25.95;;;6.30;99.90;;;;;;5049225;28;20579;-56
2021/10/17 02:15:26;;;;;;;109.25;27.52;;;6.20;99.90;;;;;;5050068;28;20401;-52
2021/10/17 02:17:52;;;;;;;105.40;28.80;;;6.80;99.90;;;;;;5049982;28;20373;-51
2021/10/17 02:20:17;;;;;;;120.43;30.43;;;6.20;99.90;;;;;;5048042;28;20376;-52
2021/10/17 02:22:43;;;;;;;124.50;30.40;;;6.20;99.90;;;;;;5050082;28;20737;-52
2021/10/17 02:25:10;;;;;;;114.80;28.70;;;6.10;99.90;;;;;;5045506;28;20476;-52
2021/10/17 02:27:35;;;;;;;138.50;29.73;;;6.10;99.90;;;;;;5044632;28;20822;-52
2021/10/17 02:30:01;;;;;;;99.13;27.23;;;6.10;99.90;;;;;;5033341;28;20466;-52
2021/10/17 02:32:28;;;;;;;116.97;31.30;;;6.10;99.90;;;;;;5047388;28;20378;-52
2021/10/17 02:34:54;;;;;;;86.38;25.98;;;6.20;99.90;;;;;;5029768;28;20475;-51
2021/10/17 02:37:19;;;;;;;97.40;28.20;;;6.00;99.90;;;;;;5028913;28;21036;-53
2021/10/17 02:39:45;;;;;;;106.60;28.52;;;6.10;99.90;;;;;;5029526;28;20459;-52
2021/10/17 02:42:11;;;;;;;136.23;32.40;;;6.10;99.90;;;;;;5028914;28;20410;-52
2021/10/17 02:44:36;;;;;;;156.10;30.93;;;6.20;99.90;;;;;;5029743;28;20421;-52
2021/10/17 02:47:02;;;;;;;99.10;27.47;;;6.10;99.90;;;;;;5028854;28;20859;-52
2021/10/17 02:49:27;;;;;;;79.88;26.73;;;6.10;99.90;;;;;;5029693;28;20438;-52
2021/10/17 02:51:53;;;;;;;102.70;27.73;;;6.40;99.90;;;;;;5029569;28;20856;-52
2021/10/17 02:54:19;;;;;;;62.30;26.23;;;6.20;99.90;;;;;;5029031;28;20387;-51
2021/10/17 02:56:44;;;;;;;88.07;26.00;;;6.20;99.90;;;;;;5033644;28;20386;-52
2021/10/17 02:59:10;;;;;;;61.97;24.23;;;6.20;99.90;;;;;;5046319;28;20389;-52
2021/10/17 03:01:36;;;;;;;64.53;24.35;;;6.20;99.90;;;;;;5044841;28;20944;-51
2021/10/17 03:04:01;;;;;;;68.90;24.90;;;6.20;99.90;;;;;;5028715;28;20878;-57
2021/10/17 03:06:28;;;;;;;47.55;22.90;;;6.20;99.90;;;;;;5036642;28;20389;-51
2021/10/17 03:08:55;;;;;;;60.13;21.98;;;6.10;99.90;;;;;;5049025;28;20457;-52
2021/10/17 03:11:21;;;;;;;67.15;23.98;;;6.20;99.90;;;;;;5048596;28;20773;-52
2021/10/17 03:13:47;;;;;;;57.33;23.90;;;6.10;99.90;;;;;;5049205;28;20853;-52
2021/10/17 03:16:13;;;;;;;57.92;22.95;;;6.50;99.90;;;;;;5048402;28;20503;-51
2021/10/17 03:18:39;;;;;;;39.28;21.85;;;6.10;99.90;;;;;;5048808;28;20493;-52
2021/10/17 03:21:05;;;;;;;43.70;20.70;;;6.10;99.90;;;;;;5047130;28;20385;-52
2021/10/17 03:23:31;;;;;;;55.40;23.23;;;6.10;99.90;;;;;;5049155;28;20377;-52
2021/10/17 03:25:57;;;;;;;40.58;21.02;;;6.10;99.90;;;;;;5049272;28;20382;-52
2021/10/17 03:28:23;;;;;;;42.23;21.60;;;6.10;99.90;;;;;;5080887;28;20389;-52
2021/10/17 03:30:51;;;;;;;38.53;21.33;;;6.10;99.90;;;;;;5049228;28;20504;-52
2021/10/17 03:33:17;;;;;;;36.17;20.55;;;6.10;99.90;;;;;;5048345;28;20453;-52
2021/10/17 03:35:43;;;;;;;39.00;20.75;;;6.10;99.90;;;;;;5049024;28;20524;-51
2021/10/17 03:38:10;;;;;;;76.45;23.45;;;6.10;99.90;;;;;;5048649;28;20674;-52
2021/10/17 03:40:35;;;;;;;49.25;22.20;;;6.00;99.90;;;;;;5047703;28;20393;-52
2021/10/17 03:43:02;;;;;;;93.93;23.77;;;7.20;99.90;;;;;;5047479;28;20896;-57
2021/10/17 03:45:30;;;;;;;78.00;24.52;;;6.00;99.90;;;;;;5048982;28;20884;-52
2021/10/17 03:47:57;;;;;;;64.38;22.15;;;6.00;99.90;;;;;;5081171;28;20892;-52
2021/10/17 03:50:22;;;;;;;70.20;23.23;;;6.00;99.90;;;;;;5048148;28;20823;-52
2021/10/17 03:52:48;;;;;;;157.65;32.05;;;6.00;99.90;;;;;;5049187;28;20493;-53
2021/10/17 03:55:14;;;;;;;149.67;29.10;;;5.80;99.90;;;;;;5048207;28;20480;-52
2021/10/17 03:57:40;;;;;;;154.88;28.27;;;5.80;99.90;;;;;;5049313;28;20852;-52
2021/10/17 04:00:06;;;;;;;137.20;27.80;;;5.70;99.90;;;;;;5047887;28;20404;-51
2021/10/17 04:02:34;;;;;;;108.00;24.90;;;5.60;99.90;;;;;;5048624;28;20397;-52
2021/10/17 04:05:00;;;;;;;121.13;25.42;;;5.50;99.90;;;;;;5048646;28;20419;-57
2021/10/17 04:07:26;;;;;;;88.70;24.60;;;5.50;99.90;;;;;;5048197;28;20811;-52
2021/10/17 04:09:51;;;;;;;111.63;24.20;;;5.50;99.90;;;;;;5048854;28;20389;-52
2021/10/17 04:12:17;;;;;;;86.70;22.63;;;5.30;99.90;;;;;;5048023;28;20381;-51
2021/10/17 04:14:42;;;;;;;137.93;26.90;;;5.40;99.90;;;;;;5048776;28;20455;-51
2021/10/17 04:17:08;;;;;;;101.20;23.92;;;5.40;99.90;;;;;;5047707;28;20385;-53
2021/10/17 04:19:34;;;;;;;90.90;23.10;;;5.40;99.90;;;;;;5043477;28;20876;-51
2021/10/17 04:21:59;;;;;;;127.10;28.70;;;5.40;99.90;;;;;;5033429;28;20473;-56
2021/10/17 04:24:25;;;;;;;108.93;24.33;;;5.40;99.90;;;;;;5035808;28;20410;-51
2021/10/17 04:26:51;;;;;;;104.60;23.20;;;5.30;99.90;;;;;;5048776;28;20385;-51
2021/10/17 04:29:16;;;;;;;59.47;21.08;;;5.30;99.90;;;;;;5036262;28;20420;-51
2021/10/17 04:31:42;;;;;;;59.80;20.50;;;5.30;99.90;;;;;;5032353;28;20739;-51
2021/10/17 04:34:08;;;;;;;75.57;21.23;;;5.20;99.90;;;;;;5031396;28;21126;-51
2021/10/17 04:36:34;;;;;;;89.00;23.53;;;5.30;99.90;;;;;;5032160;28;20799;-51
2021/10/17 04:39:00;;;;;;;82.60;21.92;;;5.30;99.90;;;;;;5031664;28;20524;-55
2021/10/17 04:41:26;;;;;;;68.47;20.02;;;5.40;99.90;;;;;;5031771;28;20402;-51
2021/10/17 04:43:52;;;;;;;122.67;23.33;;;5.40;99.90;;;;;;5031847;28;20386;-51
2021/10/17 04:46:17;;;;;;;123.70;26.38;;;5.50;99.90;;;;;;5033556;28;20381;-51
2021/10/17 04:48:43;;;;;;;114.93;25.23;;;5.70;99.90;;;;;;5040462;28;20794;-51
2021/10/17 04:51:09;;;;;;;89.80;22.90;;;5.60;99.90;;;;;;5051005;28;20382;-51
2021/10/17 04:53:34;;;;;;;114.22;23.52;;;5.60;99.90;;;;;;5051960;28;20413;-52
2021/10/17 04:56:00;;;;;;;81.47;21.73;;;5.70;99.90;;;;;;5051255;28;20389;-56
2021/10/17 04:58:28;;;;;;;126.38;25.75;;;5.80;99.90;;;;;;5051292;28;20393;-51
2021/10/17 05:00:54;;;;;;;87.40;22.48;;;5.80;99.90;;;;;;5051280;28;20382;-51
2021/10/17 05:03:19;;;;;;;148.73;26.67;;;5.90;99.90;;;;;;5050991;28;20400;-51
2021/10/17 05:05:45;;;;;;;158.77;28.27;;;5.90;99.90;;;;;;5051179;28;20413;-51
2021/10/17 05:08:11;;;;;;;210.25;29.30;;;6.00;99.90;;;;;;5050193;28;20776;-51
2021/10/17 05:10:36;;;;;;;203.10;31.80;;;5.90;99.90;;;;;;5050598;28;20390;-51
2021/10/17 05:13:02;;;;;;;285.17;39.38;;;5.90;99.90;;;;;;5050205;28;20373;-55
2021/10/17 05:15:28;;;;;;;198.10;31.80;;;6.00;99.90;;;;;;5050497;28;20393;-51
2021/10/17 05:17:53;;;;;;;203.32;30.17;;;6.00;99.90;;;;;;5050733;28;20389;-52
2021/10/17 05:20:19;;;;;;;266.13;39.03;;;6.10;99.90;;;;;;5049497;28;20386;-51
2021/10/17 05:22:45;;;;;;;160.10;28.05;;;6.10;99.90;;;;;;5050724;28;20373;-51
2021/10/17 05:25:11;;;;;;;117.57;26.17;;;6.10;99.90;;;;;;5049517;28;20441;-51
2021/10/17 05:27:37;;;;;;;282.70;35.35;;;6.10;99.90;;;;;;5050478;28;20499;-52
2021/10/17 05:30:03;;;;;;;113.45;25.30;;;6.20;99.90;;;;;;5050139;28;20382;-56
2021/10/17 05:32:29;;;;;;;210.68;31.10;;;6.20;99.90;;;;;;5049832;28;20421;-51
2021/10/17 05:34:55;;;;;;;161.50;26.20;;;6.20;99.90;;;;;;5050248;28;20738;-51
2021/10/17 05:37:20;;;;;;;80.65;20.20;;;6.20;99.90;;;;;;5048004;28;20405;-51
2021/10/17 05:39:46;;;;;;;101.40;20.80;;;6.40;99.90;;;;;;5050289;28;20385;-51
2021/10/17 05:42:12;;;;;;;43.33;15.50;;;5.60;99.90;;;;;;5049181;28;20492;-52
2021/10/17 05:44:37;;;;;;;65.72;18.00;;;6.50;99.90;;;;;;5050938;28;20471;-51
2021/10/17 05:47:03;;;;;;;48.60;15.57;;;6.50;99.90;;;;;;5045830;28;20410;-56
2021/10/17 05:49:28;;;;;;;53.45;16.40;;;6.50;99.90;;;;;;5045043;28;20401;-54
2021/10/17 05:51:54;;;;;;;47.50;15.93;;;6.60;99.90;;;;;;5049436;28;20425;-52
2021/10/17 05:54:20;;;;;;;31.47;14.43;;;6.60;99.90;;;;;;5049177;28;20907;-51
2021/10/17 05:56:45;;;;;;;32.10;13.87;;;7.20;99.90;;;;;;5050209;28;20393;-51
2021/10/17 05:59:11;;;;;;;56.47;18.97;;;6.70;99.90;;;;;;5048124;28;20857;-52
2021/10/17 06:01:37;;;;;;;32.80;15.40;;;6.70;99.90;;;;;;5039135;28;20449;-51
2021/10/17 06:04:03;;;;;;;33.13;14.73;;;6.70;99.90;;;;;;5045994;28;20467;-56
2021/10/17 06:06:29;;;;;;;41.20;14.98;;;6.80;99.90;;;;;;5043046;28;20917;-51
2021/10/17 06:08:57;;;;;;;42.78;16.45;;;6.80;99.90;;;;;;5049123;28;20493;-51
2021/10/17 06:11:23;;;;;;;42.30;16.60;;;6.80;99.90;;;;;;5047804;28;20536;-51
2021/10/17 06:13:49;;;;;;;35.63;15.07;;;6.70;99.90;;;;;;5049255;28;20819;-51
2021/10/17 06:16:14;;;;;;;44.60;16.75;;;6.70;99.90;;;;;;5048705;28;20396;-51
2021/10/17 06:18:40;;;;;;;46.90;16.83;;;6.80;99.90;;;;;;5044448;28;20890;-51
2021/10/17 06:21:07;;;;;;;60.07;18.20;;;6.80;99.90;;;;;;5031503;28;20853;-56
2021/10/17 06:23:33;;;;;;;43.28;16.80;;;6.80;99.90;;;;;;5048814;28;20381;-51
2021/10/17 06:25:59;;;;;;;41.42;18.13;;;6.80;99.90;;;;;;5049421;28;20479;-52
2021/10/17 06:28:25;;;;;;;61.88;19.73;;;6.80;99.90;;;;;;5048475;28;20409;-52
2021/10/17 06:30:50;;;;;;;59.30;18.08;;;6.90;99.90;;;;;;5049327;28;20594;-52
2021/10/17 06:33:16;;;;;;;47.93;16.83;;;7.10;99.90;;;;;;5048552;28;20385;-51
2021/10/17 06:35:42;;;;;;;50.17;17.80;;;7.20;99.90;;;;;;5048315;28;20393;-53
2021/10/17 06:38:08;;;;;;;92.17;19.80;;;7.30;99.90;;;;;;5036072;28;20406;-52
2021/10/17 06:40:33;;;;;;;97.53;20.58;;;7.40;99.90;;;;;;5038250;28;20387;-51
2021/10/17 06:42:59;;;;;;;65.30;18.48;;;7.40;99.90;;;;;;5044346;28;20391;-51
2021/10/17 06:45:25;;;;;;;91.20;19.50;;;7.50;99.90;;;;;;5027902;28;20410;-52
2021/10/17 06:47:50;;;;;;;45.15;17.25;;;7.50;99.90;;;;;;5028994;28;20386;-51
2021/10/17 06:50:20;;;;;;;48.00;16.40;;;7.50;99.90;;;;;;5028656;28;20386;-51
2021/10/17 06:52:49;;;;;;;73.97;20.25;;;7.50;99.90;;;;;;5028606;28;20375;-53
2021/10/17 06:55:15;;;;;;;51.87;16.83;;;7.50;99.90;;;;;;5029113;28;20393;-51
2021/10/17 06:57:41;;;;;;;56.42;18.17;;;7.60;99.90;;;;;;5042966;28;20389;-51
2021/10/17 07:00:07;;;;;;;48.35;18.77;;;7.60;99.90;;;;;;5048424;28;20500;-52
2021/10/17 07:02:33;;;;;;;54.93;18.70;;;7.70;99.90;;;;;;5049560;28;20385;-51
2021/10/17 07:04:59;;;;;;;61.83;19.45;;;7.60;99.90;;;;;;5048655;28;20416;-51
2021/10/17 07:07:24;;;;;;;59.60;19.23;;;7.60;99.90;;;;;;5048331;28;20911;-52
2021/10/17 07:09:50;;;;;;;80.57;20.17;;;7.60;99.90;;;;;;5047421;28;20416;-52
2021/10/17 07:12:15;;;;;;;66.40;20.73;;;7.70;99.90;;;;;;5042884;28;20404;-52
2021/10/17 07:14:41;;;;;;;68.53;17.80;;;7.70;99.90;;;;;;5037150;28;20410;-53
2021/10/17 07:17:07;;;;;;;85.60;19.40;;;7.60;99.90;;;;;;5047686;28;20386;-56
2021/10/17 07:19:33;;;;;;;62.65;15.95;;;7.50;99.90;;;;;;5043641;28;20441;-54
2021/10/17 07:21:58;;;;;;;51.37;14.47;;;7.40;99.90;;;;;;5035540;28;20407;-54
2021/10/17 07:24:24;;;;;;;35.28;14.43;;;7.40;99.90;;;;;;5033225;28;20484;-54
2021/10/17 07:26:50;;;;;;;30.98;13.55;;;7.30;99.90;;;;;;5035240;28;20399;-56
2021/10/17 07:29:15;;;;;;;30.87;12.53;;;7.40;99.90;;;;;;5032044;28;20745;-55
2021/10/17 07:31:41;;;;;;;27.67;12.77;;;7.50;99.90;;;;;;5040406;28;20459;-54
2021/10/17 07:34:07;;;;;;;25.13;11.65;;;7.60;99.90;;;;;;5046584;28;20412;-57
2021/10/17 07:36:32;;;;;;;27.33;14.18;;;7.70;99.90;;;;;;5033360;28;20415;-54
2021/10/17 07:38:58;;;;;;;25.93;12.70;;;7.90;99.90;;;;;;5041211;28;20577;-50
2021/10/17 07:41:24;;;;;;;21.98;10.75;;;8.10;99.90;;;;;;5036786;28;20475;-51
2021/10/17 07:43:49;;;;;;;21.40;10.13;;;8.20;99.90;;;;;;5031527;28;20418;-53
2021/10/17 07:46:15;;;;;;;18.90;9.45;;;7.90;99.90;;;;;;5032497;28;20395;-51
2021/10/17 07:48:41;;;;;;;23.47;9.30;;;7.80;99.90;;;;;;5029819;28;20404;-51
2021/10/17 07:51:08;;;;;;;17.48;8.52;;;7.80;99.90;;;;;;5033026;28;20730;-55
2021/10/17 07:53:34;;;;;;;21.90;8.75;;;7.90;99.90;;;;;;5030052;28;20387;-51
2021/10/17 07:56:00;;;;;;;17.67;8.17;;;8.00;99.90;;;;;;5032829;28;20418;-51
2021/10/17 07:58:25;;;;;;;16.42;7.60;;;8.00;99.90;;;;;;5038007;28;20949;-55
2021/10/17 08:00:51;;;;;;;15.02;7.18;;;8.20;99.90;;;;;;5034529;28;20483;-54
2021/10/17 08:03:17;;;;;;;13.80;6.70;;;8.30;99.90;;;;;;5031134;28;20448;-53
2021/10/17 08:05:42;;;;;;;15.05;7.70;;;8.50;99.90;;;;;;5040977;28;20507;-54
2021/10/17 08:08:08;;;;;;;12.63;6.53;;;8.50;99.90;;;;;;5039102;28;20420;-58
2021/10/17 08:10:35;;;;;;;14.73;6.80;;;8.40;99.90;;;;;;5042586;28;20394;-54
2021/10/17 08:13:01;;;;;;;15.90;6.65;;;8.50;99.90;;;;;;5032248;28;20391;-53
2021/10/17 08:15:28;;;;;;;14.80;7.43;;;8.00;99.90;;;;;;5033800;28;20417;-54
2021/10/17 08:17:54;;;;;;;15.15;6.93;;;8.60;99.90;;;;;;5036157;28;20438;-54
2021/10/17 08:20:20;;;;;;;15.43;6.40;;;8.70;99.90;;;;;;5036939;28;20467;-54
2021/10/17 08:22:47;;;;;;;14.85;6.68;;;8.70;99.90;;;;;;5035749;28;20485;-54
2021/10/17 08:25:13;;;;;;;21.90;7.50;;;8.70;99.90;;;;;;5034783;28;20437;-53
2021/10/17 08:27:40;;;;;;;15.60;7.38;;;8.60;99.90;;;;;;5032185;28;20390;-54
2021/10/17 08:30:08;;;;;;;15.23;7.20;;;8.60;99.90;;;;;;5037398;28;20411;-55
2021/10/17 08:32:34;;;;;;;14.07;7.00;;;8.60;99.90;;;;;;5034127;28;20511;-55
2021/10/17 08:34:59;;;;;;;15.73;7.35;;;8.50;99.90;;;;;;5037360;28;20417;-54
2021/10/17 08:37:25;;;;;;;18.83;7.90;;;8.60;99.90;;;;;;5036497;28;21027;-54
2021/10/17 08:39:52;;;;;;;20.75;8.20;;;8.60;99.90;;;;;;5036187;28;20518;-53
2021/10/17 08:42:17;;;;;;;17.67;7.70;;;8.40;99.90;;;;;;5032672;28;20493;-53
2021/10/17 08:44:43;;;;;;;17.73;7.65;;;8.50;99.90;;;;;;5034061;28;20504;-58
2021/10/17 08:47:09;;;;;;;17.25;8.40;;;8.60;99.90;;;;;;5030526;28;20409;-59
2021/10/17 08:49:36;;;;;;;16.80;8.93;;;8.90;99.90;;;;;;5039399;28;20453;-54
2021/10/17 08:52:02;;;;;;;15.53;8.50;;;9.30;99.90;;;;;;5034460;28;20396;-54
2021/10/17 08:54:27;;;;;;;16.60;8.25;;;9.20;99.90;;;;;;5036253;28;20422;-58
2021/10/17 08:56:53;;;;;;;16.17;8.18;;;8.50;99.90;;;;;;5036275;28;20406;-56
2021/10/17 08:59:18;;;;;;;36.90;10.37;;;9.40;99.90;;;;;;5041289;28;20597;-54
2021/10/17 09:01:44;;;;;;;17.10;8.98;;;9.20;99.90;;;;;;5041458;28;20871;-54
2021/10/17 09:04:13;;;;;;;20.23;9.10;;;9.20;99.90;;;;;;5042526;28;20417;-58
2021/10/17 09:06:39;;;;;;;17.65;8.90;;;8.20;99.90;;;;;;5040983;28;20421;-54
2021/10/17 09:09:05;;;;;;;17.70;9.00;;;9.40;99.90;;;;;;5036819;28;20411;-55
2021/10/17 09:11:37;;;;;;;19.63;10.50;;;9.60;99.90;;;;;;5038098;28;20811;-56
2021/10/17 09:14:09;;;;;;;20.85;9.10;;;9.80;99.90;;;;;;5040823;28;20444;-56
2021/10/17 09:16:46;;;;;;;17.67;8.88;;;9.80;99.90;;;;;;5039445;28;20415;-54
2021/10/17 09:19:13;;;;;;;18.73;9.30;;;9.90;99.90;;;;;;5043891;28;20405;-54
2021/10/17 09:21:57;;;;;;;18.73;9.40;;;9.80;99.90;;;;;;5057316;28;20404;-54
2021/10/17 09:24:25;;;;;;;17.98;10.45;;;10.00;99.90;;;;;;5058266;28;20492;-57
2021/10/17 09:27:03;;;;;;;23.55;10.90;;;9.80;99.90;;;;;;5060810;28;20462;-54
2021/10/17 09:29:29;;;;;;;23.08;11.50;;;9.80;99.90;;;;;;5052398;28;20486;-54
2021/10/17 09:31:55;;;;;;;20.50;10.57;;;9.60;99.90;;;;;;5050017;28;20385;-55
2021/10/17 09:34:26;;;;;;;19.20;10.20;;;9.80;99.90;;;;;;5049441;28;20820;-56
2021/10/17 09:37:11;;;;;;;21.23;10.95;;;9.90;99.90;;;;;;5049920;28;20413;-55
2021/10/17 09:39:41;;;;;;;20.77;11.10;;;10.20;99.90;;;;;;5048588;28;20390;-55
2021/10/17 09:42:07;;;;;;;19.55;10.90;;;10.30;99.90;;;;;;5047341;28;20377;-59
2021/10/17 09:44:41;;;;;;;20.15;10.02;;;10.40;99.90;;;;;;5049215;28;20416;-54
2021/10/17 09:47:09;;;;;;;21.05;11.43;;;10.30;99.90;;;;;;5047557;28;20389;-59
2021/10/17 09:49:34;;;;;;;20.80;11.38;;;10.30;99.90;;;;;;5049089;28;20393;-54
2021/10/17 09:52:18;;;;;;;19.98;11.38;;;10.30;99.90;;;;;;5049887;28;20469;-54
2021/10/17 09:54:49;;;;;;;21.88;12.32;;;10.20;99.90;;;;;;5048750;28;20394;-54
2021/10/17 09:57:15;;;;;;;23.85;12.60;;;10.00;99.90;;;;;;5043119;28;20987;-54
2021/10/17 09:59:41;;;;;;;19.85;11.63;;;10.00;99.90;;;;;;5049320;28;20551;-55
2021/10/17 10:02:09;;;;;;;21.93;11.93;;;10.20;99.90;;;;;;5049039;28;20465;-54
2021/10/17 10:04:40;;;;;;;20.52;11.43;;;10.30;99.90;;;;;;5046692;28;20459;-53
2021/10/17 10:07:10;;;;;;;21.97;12.00;;;10.50;99.90;;;;;;5049715;28;20400;-52
2021/10/17 10:09:37;;;;;;;23.45;12.32;;;10.60;99.90;;;;;;5049018;28;20413;-54
2021/10/17 10:12:04;;;;;;;23.77;11.60;;;10.60;99.90;;;;;;5046244;28;20449;-52
2021/10/17 10:14:32;;;;;;;22.27;12.17;;;10.50;99.90;;;;;;5043387;28;20413;-52
2021/10/17 10:17:00;;;;;;;24.17;13.27;;;10.50;99.90;;;;;;5042264;28;20894;-55
2021/10/17 10:19:26;;;;;;;23.90;12.80;;;10.50;99.90;;;;;;5042313;28;20468;-53
2021/10/17 10:21:52;;;;;;;23.23;13.10;;;10.60;99.90;;;;;;5049539;28;20441;-54
2021/10/17 10:24:19;;;;;;;21.60;12.73;;;10.60;99.90;;;;;;5046880;28;20570;-52
2021/10/17 10:26:52;;;;;;;22.20;13.73;;;10.80;99.90;;;;;;5045215;28;20475;-54
2021/10/17 10:29:26;;;;;;;22.98;12.35;;;11.00;99.90;;;;;;5045198;28;20372;-54
2021/10/17 10:31:56;;;;;;;24.40;13.63;;;10.90;99.90;;;;;;5029810;28;20383;-52
2021/10/17 10:34:22;;;;;;;38.05;20.35;;;10.90;99.90;;;;;;5028827;28;20394;-54
2021/10/17 10:36:50;;;;;;;31.60;16.63;;;10.80;99.90;;;;;;5029295;28;20403;-53
2021/10/17 10:39:23;;;;;;;29.98;15.30;;;10.60;99.90;;;;;;5028683;28;20379;-53
2021/10/17 10:42:14;;;;;;;31.98;15.52;;;10.50;99.90;;;;;;5029562;28;20513;-53
2021/10/17 10:44:40;;;;;;;29.27;15.35;;;10.60;99.90;;;;;;5029703;28;20407;-54
2021/10/17 10:47:28;;;;;;;33.75;17.92;;;10.60;99.90;;;;;;5029392;28;20460;-52
2021/10/17 10:49:57;;;;;;;31.60;15.70;;;10.60;99.90;;;;;;5029199;28;20426;-53
2021/10/17 10:52:28;;;;;;;26.23;14.30;;;10.90;99.90;;;;;;5028777;28;20390;-53
2021/10/17 10:54:56;;;;;;;24.88;14.13;;;10.90;99.90;;;;;;5027807;28;20426;-56
2021/10/17 10:57:24;;;;;;;25.08;13.15;;;10.90;99.90;;;;;;5039441;28;20472;-52
2021/10/17 11:00:29;;;;;;;26.47;15.23;;;10.90;99.90;;;;;;5048507;28;20889;-54
2021/10/17 11:03:17;;;;;;;26.50;15.10;;;11.10;99.90;;;;;;5026465;28;20403;-53
2021/10/17 11:06:06;;;;;;;31.63;16.20;;;11.10;99.90;;;;;;5048446;28;20416;-52
2021/10/17 11:08:33;;;;;;;31.60;17.63;;;11.10;99.90;;;;;;5044163;28;20439;-53
2021/10/17 11:10:59;;;;;;;29.52;18.05;;;11.20;99.90;;;;;;5047536;28;20390;-53
2021/10/17 11:13:40;;;;;;;28.67;17.17;;;11.30;99.90;;;;;;5048192;28;20381;-52
2021/10/17 11:16:08;;;;;;;25.40;14.75;;;11.40;99.90;;;;;;5048812;28;20440;-53
2021/10/17 11:18:37;;;;;;;29.33;18.90;;;11.50;99.90;;;;;;5048409;28;20884;-53
2021/10/17 11:21:04;;;;;;;41.08;23.67;;;11.30;99.90;;;;;;5048973;28;20411;-53
2021/10/17 11:23:33;;;;;;;27.10;14.70;;;11.40;99.90;;;;;;5047753;28;20501;-52
2021/10/17 11:26:05;;;;;;;25.50;15.20;;;11.00;99.90;;;;;;5048358;28;20413;-54
2021/10/17 11:28:32;;;;;;;24.75;13.88;;;11.00;99.90;;;;;;5048162;28;20639;-53
2021/10/17 11:31:11;;;;;;;27.38;14.77;;;11.20;99.90;;;;;;5048830;28;20385;-53
2021/10/17 11:33:39;;;;;;;25.67;14.50;;;11.20;99.90;;;;;;5048456;28;20433;-53
2021/10/17 11:36:07;;;;;;;26.98;14.35;;;11.20;99.90;;;;;;5047452;28;20812;-53
2021/10/17 11:38:33;;;;;;;27.38;15.38;;;11.20;99.90;;;;;;5048413;28;20404;-53
2021/10/17 11:41:06;;;;;;;25.77;14.45;;;11.50;99.90;;;;;;5052756;28;20382;-54
2021/10/17 11:43:40;;;;;;;28.80;15.40;;;12.80;99.90;;;;;;5051919;28;20384;-52
2021/10/17 11:46:09;;;;;;;25.50;13.73;;;11.80;99.90;;;;;;5052715;28;20448;-55
2021/10/17 11:48:37;;;;;;;23.58;13.40;;;11.90;99.90;;;;;;5052186;28;20373;-52
2021/10/17 11:51:05;;;;;;;27.02;14.38;;;12.00;99.90;;;;;;5052400;28;20385;-52
2021/10/17 11:53:32;;;;;;;25.27;14.40;;;11.90;99.90;;;;;;5051170;28;20453;-52
2021/10/17 11:55:57;;;;;;;29.10;16.27;;;12.00;99.90;;;;;;5052315;28;20416;-54
2021/10/17 11:58:26;;;;;;;26.15;15.35;;;12.10;99.90;;;;;;5051271;28;20409;-51
2021/10/17 12:01:13;;;;;;;29.17;16.20;;;11.90;99.90;;;;;;5052063;28;20464;-52
2021/10/17 12:03:50;;;;;;;26.20;14.77;;;12.00;99.90;;;;;;5051825;28;20432;-52
2021/10/17 12:06:19;;;;;;;28.27;15.63;;;11.90;99.90;;;;;;5051074;28;20415;-52
2021/10/17 12:09:03;;;;;;;25.98;15.40;;;11.90;99.90;;;;;;5051887;28;20394;-51
2021/10/17 12:11:29;;;;;;;27.15;15.18;;;12.00;99.90;;;;;;5051455;28;20380;-52
2021/10/17 12:13:57;;;;;;;27.15;16.95;;;11.80;99.90;;;;;;5051841;28;20435;-53
2021/10/17 12:16:25;;;;;;;30.83;19.60;;;11.80;99.90;;;;;;5049797;28;20393;-52
2021/10/17 12:18:59;;;;;;;26.10;15.10;;;12.00;99.90;;;;;;5051870;28;20381;-52
2021/10/17 12:21:30;;;;;;;26.63;15.50;;;11.90;99.90;;;;;;5050806;28;20378;-52
2021/10/17 12:23:57;;;;;;;27.85;15.57;;;12.00;99.90;;;;;;5051595;28;20396;-51
2021/10/17 12:26:32;;;;;;;26.95;15.80;;;12.00;99.90;;;;;;5050603;28;20461;-52
2021/10/17 12:29:17;;;;;;;26.42;15.68;;;12.20;99.90;;;;;;5052213;28;20981;-51
2021/10/17 12:31:54;;;;;;;26.70;15.45;;;12.40;99.90;;;;;;5052067;28;20393;-52
2021/10/17 12:34:39;;;;;;;24.73;15.88;;;12.40;99.90;;;;;;5051591;28;20385;-52